Time;durP1;ratioP1;P1;durP2;ratioP2;P2;SDS_P1;SDS_P2;PMS_P1;PMS_P2;Temp;Humidity;BMP_temperature;BMP_pressure;BME280_temperature;BME280_humidity;BME280_pressure;Samples;Min_cycle;Max_cycle;Signal;HPM_P1;HPM_P2
2022/04/20 00:01:23;;;;;;;16.17;9.70;;;;;;;4.03;66.21;94830.31;6273368;22;20011;-84
2022/04/20 00:03:49;;;;;;;15.75;8.55;;;;;;;3.43;65.57;94713.78;6271379;22;20037;-84
2022/04/20 00:06:17;;;;;;;12.55;8.25;;;;;;;3.91;65.84;94842.72;6273205;22;20418;-84
2022/04/20 00:08:43;;;;;;;14.05;8.98;;;;;;;4.24;65.74;94817.25;6271160;22;20216;-84
2022/04/20 00:11:09;;;;;;;11.57;7.20;;;;;;;4.03;65.98;94818.00;6273264;22;20010;-84
2022/04/20 00:13:35;;;;;;;16.92;8.55;;;;;;;4.69;66.31;94921.28;6272501;22;20035;-84
2022/04/20 00:16:01;;;;;;;12.20;8.20;;;;;;;3.83;66.36;94779.13;6271968;22;20014;-84
2022/04/20 00:18:26;;;;;;;15.13;8.48;;;;;;;3.76;66.43;94781.13;6274639;22;20078;-84
2022/04/20 00:20:52;;;;;;;20.45;9.27;;;;;;;4.11;67.57;94898.94;6273234;22;20441;-84
2022/04/20 00:23:17;;;;;;;18.95;9.68;;;;;;;2.98;67.14;94676.41;6272264;22;20007;-84
2022/04/20 00:25:43;;;;;;;17.23;9.48;;;;;;;2.48;67.10;94596.03;6273316;22;20014;-84
2022/04/20 00:28:08;;;;;;;19.60;10.27;;;;;;;3.34;67.28;94753.75;6272060;22;20014;-85
2022/04/20 00:30:34;;;;;;;21.92;11.07;;;;;;;4.11;66.89;94854.34;6273390;22;20003;-85
2022/04/20 00:32:59;;;;;;;15.38;8.82;;;;;;;4.01;67.57;94853.38;6271246;22;20041;-84
2022/04/20 00:35:26;;;;;;;15.48;9.00;;;;;;;3.47;67.02;94748.97;6268722;22;20099;-84
2022/04/20 00:37:51;;;;;;;17.45;9.90;;;;;;;4.23;67.31;94896.22;6242861;23;20012;-84
2022/04/20 00:40:17;;;;;;;15.32;8.13;;;;;;;3.28;67.21;94726.66;6215851;23;20477;-84
2022/04/20 00:42:43;;;;;;;14.85;9.57;;;;;;;4.08;66.96;94840.88;6243601;23;20004;-85
2022/04/20 00:45:11;;;;;;;16.40;9.93;;;;;;;3.66;67.04;94765.25;6242491;23;20040;-84
2022/04/20 00:47:37;;;;;;;20.85;8.90;;;;;;;3.66;67.36;94803.81;6215069;23;20010;-84
2022/04/20 00:50:04;;;;;;;16.92;10.50;;;;;;;3.96;67.33;94845.44;6215483;23;20087;-84
2022/04/20 00:52:29;;;;;;;15.88;9.40;;;;;;;2.63;67.24;94635.53;6216002;23;20012;-84
2022/04/20 00:54:55;;;;;;;17.10;9.35;;;;;;;2.58;67.32;94640.69;6242546;23;20000;-84
2022/04/20 00:57:20;;;;;;;18.13;9.15;;;;;;;3.88;67.40;94818.59;6242608;23;20004;-85
2022/04/20 00:59:49;;;;;;;16.13;9.07;;;;;;;3.56;66.89;94775.59;6215648;23;20036;-84
2022/04/20 01:02:15;;;;;;;16.90;10.02;;;;;;;4.19;67.46;94889.88;6243238;23;20351;-85
2022/04/20 01:04:40;;;;;;;17.35;9.02;;;;;;;3.19;68.01;94743.03;6214697;23;20455;-84
2022/04/20 01:07:24;;;;;;;17.02;9.57;;;;;;;3.83;67.85;94838.66;6216245;23;20344;-84
2022/04/20 01:09:50;;;;;;;24.23;10.73;;;;;;;1.83;68.06;94546.00;6243294;23;20062;-84
2022/04/20 01:12:17;;;;;;;14.90;9.15;;;;;;;3.19;67.94;94745.66;6244044;23;20007;-84
2022/04/20 01:14:43;;;;;;;13.27;9.05;;;;;;;2.91;67.50;94688.84;6217554;23;20494;-85
2022/04/20 01:17:09;;;;;;;16.73;9.25;;;;;;;3.29;67.47;94770.19;6244692;23;20142;-85
2022/04/20 01:19:38;;;;;;;15.90;8.77;;;;;;;4.05;67.91;94894.63;6245864;23;20012;-85
2022/04/20 01:22:04;;;;;;;13.88;8.80;;;;;;;3.92;68.81;94912.53;6227230;23;20145;-84
2022/04/20 01:24:30;;;;;;;15.35;9.52;;;;;;;2.70;69.40;94774.16;6266796;23;20071;-84
2022/04/20 01:26:56;;;;;;;14.50;9.70;;;;;;;3.30;69.44;94865.34;6230661;23;20008;-84
2022/04/20 01:29:22;;;;;;;14.52;9.48;;;;;;;2.89;69.46;94780.00;6244871;23;20011;-84
2022/04/20 01:31:48;;;;;;;15.25;10.02;;;;;;;2.63;68.94;94728.97;6215979;23;20016;-84
2022/04/20 01:34:13;;;;;;;15.15;9.35;;;;;;;3.92;68.69;94936.94;6216472;23;20011;-84
2022/04/20 01:36:39;;;;;;;16.20;10.10;;;;;;;2.88;68.66;94792.28;6242486;22;20016;-84
2022/04/20 01:39:05;;;;;;;15.95;9.82;;;;;;;3.36;68.54;94873.03;6215898;23;20012;-85
2022/04/20 01:41:30;;;;;;;15.07;10.02;;;;;;;3.62;68.48;94876.91;6243366;23;20431;-84
2022/04/20 01:43:56;;;;;;;16.38;10.07;;;;;;;1.55;68.59;94565.84;6215488;23;20439;-84
2022/04/20 01:46:21;;;;;;;16.25;10.15;;;;;;;2.72;68.88;94772.88;6242160;23;20019;-84
2022/04/20 01:48:47;;;;;;;14.70;9.65;;;;;;;3.17;68.46;94811.41;6243521;23;20035;-84
2022/04/20 01:53:57;;;;;;;20.65;10.07;;;;;;;2.75;68.63;94789.94;6242272;23;20062;-85
2022/04/20 01:56:22;;;;;;;14.60;9.85;;;;;;;0.18;68.96;94391.78;6241242;23;20406;-85
2022/04/20 01:58:47;;;;;;;27.27;10.43;;;;;;;2.56;68.94;94744.84;6215312;23;20011;-85
2022/04/20 02:03:57;;;;;;;20.40;10.32;;;;;;;2.97;69.59;94890.44;6243652;23;20138;-85
2022/04/20 02:06:22;;;;;;;21.27;10.63;;;;;;;2.89;69.39;94862.00;6242999;23;20008;-85
2022/04/20 02:08:48;;;;;;;20.17;10.90;;;;;;;1.99;69.41;94725.66;6243086;23;20011;-85
2022/04/20 02:11:13;;;;;;;17.50;9.80;;;;;;;2.84;68.89;94825.22;6214960;23;20075;-85
2022/04/20 02:13:39;;;;;;;15.50;9.73;;;;;;;3.69;68.94;94940.50;6242749;23;20008;-85
2022/04/20 02:16:05;;;;;;;15.25;10.13;;;;;;;2.33;69.38;94760.63;6242620;23;20004;-85
2022/04/20 02:18:31;;;;;;;21.33;10.10;;;;;;;2.82;69.96;94818.63;6215425;23;20000;-85
2022/04/20 02:20:56;;;;;;;20.95;11.13;;;;;;;2.84;69.42;94819.16;6215518;23;20019;-85
2022/04/20 02:23:22;;;;;;;33.83;11.60;;;;;;;2.96;69.26;94833.03;6214918;23;20015;-85
2022/04/20 02:25:47;;;;;;;26.15;12.80;;;;;;;2.79;68.87;94801.56;6215488;23;20015;-85
2022/04/20 02:28:13;;;;;;;28.33;13.43;;;;;;;2.75;68.01;94795.16;6240490;23;20008;-86
2022/04/20 02:30:38;;;;;;;25.55;14.32;;;;;;;2.15;68.74;94724.13;6242010;23;20399;-86
2022/04/20 02:33:05;;;;;;;27.48;13.00;;;;;;;2.91;68.73;94857.28;6242224;23;20008;-85
2022/04/20 02:35:31;;;;;;;18.02;11.93;;;;;;;1.51;69.58;94658.03;6214679;22;20044;-85
2022/04/20 02:37:58;;;;;;;27.75;13.27;;;;;;;2.84;69.15;94827.81;6240440;23;20362;-85
2022/04/20 02:40:24;;;;;;;22.90;11.90;;;;;;;2.75;68.92;94818.75;6242330;23;20004;-86
2022/04/20 02:42:49;;;;;;;30.52;14.82;;;;;;;0.81;68.00;94501.41;6214913;23;20015;-85
2022/04/20 02:45:16;;;;;;;29.67;15.45;;;;;;;2.72;68.12;94791.22;6240313;23;20363;-85
2022/04/20 02:47:42;;;;;;;30.92;15.77;;;;;;;2.97;66.98;94839.88;6241420;23;20004;-85
2022/04/20 02:50:08;;;;;;;33.22;17.10;;;;;;;3.41;66.94;94898.56;6241917;23;20008;-85
2022/04/20 02:52:33;;;;;;;27.80;15.85;;;;;;;2.46;66.80;94756.94;6241735;23;20095;-85
2022/04/20 02:54:59;;;;;;;29.05;16.42;;;;;;;3.40;66.99;94910.09;6239516;23;20031;-85
2022/04/20 02:57:25;;;;;;;32.28;15.68;;;;;;;2.71;67.34;94852.47;6239955;23;20431;-85
2022/04/20 02:59:51;;;;;;;32.25;16.40;;;;;;;0.48;66.95;94457.63;6240986;23;20036;-85
2022/04/20 03:02:16;;;;;;;37.53;15.93;;;;;;;3.42;67.63;94929.81;6242289;23;20106;-85
2022/04/20 03:04:42;;;;;;;30.48;15.27;;;;;;;2.18;67.30;94734.16;6214953;23;20016;-85
2022/04/20 03:07:07;;;;;;;29.15;16.58;;;;;;;2.78;66.73;94809.63;6214096;23;20023;-85
2022/04/20 03:09:33;;;;;;;31.52;16.08;;;;;;;2.35;67.01;94765.63;6242127;23;20526;-85
2022/04/20 03:11:58;;;;;;;36.95;17.17;;;;;;;3.52;67.06;94944.09;6215802;23;20066;-85
2022/04/20 03:14:24;;;;;;;32.45;16.95;;;;;;;2.69;66.68;94815.25;6217169;23;20019;-85
2022/04/20 03:16:49;;;;;;;25.77;16.13;;;;;;;3.08;66.85;94886.16;6243236;23;20004;-85
2022/04/20 03:19:15;;;;;;;31.17;16.42;;;;;;;2.82;66.62;94824.66;6244384;23;20012;-85
2022/04/20 03:21:40;;;;;;;31.00;16.60;;;;;;;2.77;66.56;94815.91;6216431;23;20008;-85
2022/04/20 03:24:06;;;;;;;35.20;17.42;;;;;;;2.41;66.42;94751.59;6243800;23;20367;-85
2022/04/20 03:26:31;;;;;;;36.53;16.25;;;;;;;0.55;66.84;94517.53;6217004;23;20458;-85
2022/04/20 03:28:57;;;;;;;31.23;16.45;;;;;;;2.67;67.21;94840.84;6217635;23;20022;-85
2022/04/20 03:31:22;;;;;;;34.10;18.52;;;;;;;1.93;67.28;94732.63;6243698;23;20012;-85
2022/04/20 03:33:48;;;;;;;31.77;17.60;;;;;;;2.45;66.96;94781.50;6244972;23;20008;-85
2022/04/20 03:36:14;;;;;;;34.35;17.83;;;;;;;1.84;66.83;94686.91;6244641;22;20095;-85
2022/04/20 03:38:40;;;;;;;31.10;18.05;;;;;;;2.91;67.25;94848.63;6244387;23;20004;-85
2022/04/20 03:41:06;;;;;;;32.38;16.73;;;;;;;2.71;67.25;94828.91;6217753;23;20323;-85
2022/04/20 03:43:31;;;;;;;29.58;15.32;;;;;;;2.95;67.22;94841.91;6217574;23;20031;-85
2022/04/20 03:45:57;;;;;;;26.38;15.23;;;;;;;2.45;66.89;94790.16;6219664;23;20448;-85
2022/04/20 03:48:23;;;;;;;22.15;13.88;;;;;;;3.20;66.75;94867.78;6230219;23;20012;-85
2022/04/20 03:50:50;;;;;;;27.15;15.48;;;;;;;2.24;66.72;94756.78;6238975;23;20015;-85
2022/04/20 03:53:16;;;;;;;26.20;15.63;;;;;;;2.94;67.67;94864.69;6219649;23;20068;-85
2022/04/20 03:55:41;;;;;;;28.02;14.88;;;;;;;3.04;67.54;94866.72;6245023;23;20047;-85
2022/04/20 03:58:07;;;;;;;31.27;15.35;;;;;;;2.95;67.25;94878.59;6217046;23;20012;-85
2022/04/20 04:00:32;;;;;;;25.58;13.80;;;;;;;2.38;68.98;94823.50;6243439;23;20012;-85
2022/04/20 04:02:58;;;;;;;22.58;14.07;;;;;;;2.84;68.26;94863.69;6244176;23;20015;-85
2022/04/20 04:05:24;;;;;;;24.80;14.05;;;;;;;2.61;68.14;94818.22;6214061;23;20008;-85
2022/04/20 04:07:49;;;;;;;22.45;13.70;;;;;;;1.88;67.44;94680.22;6215921;23;20062;-85
2022/04/20 04:10:15;;;;;;;26.67;15.10;;;;;;;2.46;68.88;94804.84;6215992;23;20015;-84
2022/04/20 04:12:41;;;;;;;30.33;17.17;;;;;;;3.04;68.20;94848.38;6244609;23;20024;-84
2022/04/20 04:15:07;;;;;;;23.08;13.48;;;;;;;2.22;67.99;94709.91;6215440;23;20016;-85
2022/04/20 04:17:33;;;;;;;22.77;14.13;;;;;;;1.79;67.39;94637.16;6243952;23;20503;-85
2022/04/20 04:20:04;;;;;;;29.45;15.88;;;;;;;3.18;67.43;94848.88;6215760;23;20008;-85
2022/04/20 04:22:30;;;;;;;26.27;16.10;;;;;;;2.77;67.29;94774.78;6240774;23;20012;-85
2022/04/20 04:24:57;;;;;;;25.27;14.93;;;;;;;3.01;67.85;94828.66;6214286;23;20019;-84
2022/04/20 04:27:23;;;;;;;35.53;16.73;;;;;;;3.60;67.25;94897.31;6212964;23;20020;-83
2022/04/20 04:29:48;;;;;;;26.75;16.23;;;;;;;2.91;67.46;94783.16;6211853;23;20004;-84
2022/04/20 04:32:17;;;;;;;32.90;15.52;;;;;;;3.75;66.93;94894.94;6205760;23;20023;-84
2022/04/20 04:34:44;;;;;;;27.98;14.48;;;;;;;2.68;67.21;94716.78;6226675;23;20182;-83
2022/04/20 04:37:13;;;;;;;28.00;15.93;;;;;;;1.84;67.36;94607.69;6252057;22;20415;-82
2022/04/20 04:39:39;;;;;;;35.30;16.10;;;;;;;3.13;67.24;94796.41;6265552;22;20012;-84
2022/04/20 04:42:06;;;;;;;33.38;16.38;;;;;;;3.36;66.90;94812.75;6266448;22;20014;-85
2022/04/20 04:44:35;;;;;;;40.33;17.55;;;;;;;0.34;67.11;94420.56;6267895;22;20011;-84
2022/04/20 04:49:45;;;;;;;45.33;18.17;;;;;;;3.35;67.66;94860.19;6263100;22;20349;-85
2022/04/20 04:52:13;;;;;;;37.40;17.95;;;;;;;3.47;67.40;94840.75;6265445;22;20354;-86
2022/04/20 04:54:42;;;;;;;29.45;17.17;;;;;;;3.07;67.28;94741.28;6266322;22;20008;-85
2022/04/20 04:57:16;;;;;;;39.80;16.85;;;;;;;1.99;67.02;94581.03;6261279;22;20011;-84
2022/04/20 04:59:47;;;;;;;30.25;16.85;;;;;;;0.16;66.47;94308.56;6262809;22;20638;-85
2022/04/20 05:02:20;;;;;;;31.00;16.03;;;;;;;3.47;66.58;94863.53;6258378;22;20004;-85
2022/04/20 05:04:49;;;;;;;30.85;15.95;;;;;;;2.98;69.42;94886.75;6258129;22;20330;-85
2022/04/20 05:07:23;;;;;;;30.08;16.63;;;;;;;-2.68;69.88;94043.63;6259361;22;20026;-85
2022/04/20 05:09:49;;;;;;;28.33;17.30;;;;;;;0.27;71.14;94516.41;6256530;22;20038;-84
2022/04/20 05:12:19;;;;;;;32.25;16.85;;;;;;;-2.21;69.83;94020.41;6253372;22;20332;-84
2022/04/20 05:15:21;;;;;;;37.97;16.25;;;;;;;1.53;70.02;94598.47;6255215;22;20057;-85
2022/04/20 05:17:55;;;;;;;37.35;15.80;;;;;;;1.27;69.50;94539.69;6170647;23;20013;-85
2022/04/20 05:20:21;;;;;;;36.45;17.70;;;;;;;1.69;69.25;94568.97;6195143;23;20043;-86
2022/04/20 05:22:48;;;;;;;27.42;16.40;;;;;;;3.64;69.29;94847.81;6234685;22;20004;-86
2022/04/20 05:25:13;;;;;;;24.13;15.45;;;;;;;3.97;68.15;94881.16;6261350;22;20145;-83
2022/04/20 05:27:39;;;;;;;29.67;15.55;;;;;;;2.95;68.17;94729.28;6255158;22;20042;-84
2022/04/20 05:30:06;;;;;;;22.55;13.82;;;;;;;4.11;68.19;94937.50;6256836;22;20326;-84
2022/04/20 05:32:35;;;;;;;24.67;14.07;;;;;;;3.75;68.54;94863.47;6257521;22;20042;-86
2022/04/20 05:35:01;;;;;;;22.48;13.48;;;;;;;2.72;67.74;94662.91;6260035;22;20295;-83
2022/04/20 05:42:59;;;;;;;23.92;14.43;;;;;;;-0.45;67.05;94144.97;6257480;22;20528;-85
2022/04/20 05:45:31;;;;;;;28.92;13.40;;;;;;;-0.58;66.58;94137.44;6258248;22;20111;-86
2022/04/20 05:48:01;;;;;;;25.45;14.77;;;;;;;-0.50;66.35;94137.06;6256686;22;20011;-84
2022/04/20 05:50:50;;;;;;;20.40;14.68;;;;;;;4.90;66.70;94938.09;6257011;22;20007;-86
2022/04/20 05:53:17;;;;;;;52.35;16.00;;;;;;;2.27;66.61;94600.13;6233990;22;20534;-86
2022/04/20 05:55:44;;;;;;;31.98;15.98;;;;;;;1.24;66.31;94375.59;6256698;22;20069;-85
2022/04/20 05:58:10;;;;;;;59.38;16.38;;;;;;;0.09;66.17;94197.59;6255456;22;20023;-87
2022/04/20 06:00:35;;;;;;;22.85;14.55;;;;;;;2.62;66.08;94628.69;6257834;22;20012;-86
2022/04/20 06:03:01;;;;;;;22.75;14.32;;;;;;;1.53;65.60;94463.38;6258342;22;20006;-85
2022/04/20 06:05:26;;;;;;;34.95;15.02;;;;;;;2.29;65.92;94629.44;6254764;22;20015;-85
2022/04/20 06:07:55;;;;;;;52.10;15.57;;;;;;;-0.47;66.04;94139.22;6253173;22;20286;-85
2022/04/20 06:10:32;;;;;;;21.30;12.68;;;;;;;0.30;65.73;94262.19;6250240;22;20098;-86
2022/04/20 06:13:02;;;;;;;22.90;12.80;;;;;;;2.34;66.51;94615.66;6252575;22;20023;-87
2022/04/20 06:15:28;;;;;;;26.73;13.25;;;;;;;-0.80;66.36;94100.78;6255104;22;20231;-85
2022/04/20 06:17:57;;;;;;;23.63;13.75;;;;;;;2.79;66.96;94657.53;6261113;22;20008;-86
2022/04/20 06:20:22;;;;;;;26.42;13.43;;;;;;;-0.36;67.50;94166.25;6256875;22;20114;-85
2022/04/20 06:22:57;;;;;;;24.75;15.02;;;;;;;3.35;68.85;94688.00;6253142;22;20011;-84
2022/04/20 06:25:22;;;;;;;24.80;14.52;;;;;;;4.51;68.18;94929.44;6256885;22;20016;-84
2022/04/20 06:27:48;;;;;;;30.63;14.23;;;;;;;4.35;69.65;94841.78;6257108;22;20019;-84
2022/04/20 06:30:13;;;;;;;29.67;15.70;;;;;;;0.12;69.99;94298.84;6256150;22;20179;-83
2022/04/20 06:32:39;;;;;;;28.92;15.93;;;;;;;4.71;71.90;94969.13;6257777;22;20176;-83
2022/04/20 06:35:05;;;;;;;31.80;17.10;;;;;;;4.12;72.72;94899.75;6257543;22;20079;-83
2022/04/20 06:37:31;;;;;;;31.23;17.02;;;;;;;2.37;72.21;94645.78;6225538;22;20239;-84
2022/04/20 06:39:56;;;;;;;33.92;17.95;;;;;;;-0.49;72.33;94139.44;6196102;23;20023;-84
2022/04/20 06:42:22;;;;;;;38.30;18.52;;;;;;;4.07;72.97;94891.78;6196946;23;20008;-83
2022/04/20 06:44:48;;;;;;;27.95;16.17;;;;;;;3.39;72.93;94752.00;6198114;23;20191;-82
2022/04/20 06:47:14;;;;;;;26.70;16.92;;;;;;;1.74;73.39;94571.72;6198345;23;20039;-83
2022/04/20 06:49:39;;;;;;;33.15;18.98;;;;;;;3.93;74.16;94866.91;6198996;23;20030;-83
2022/04/20 07:00:39;;;;;;;29.33;19.67;;;;;;;3.53;75.03;94776.06;6104271;23;20076;-82
2022/04/20 07:03:08;;;;;;;37.63;22.48;;;;;;;3.73;74.52;94800.00;6161812;23;20384;-84
2022/04/20 07:05:35;;;;;;;31.67;20.48;;;;;;;3.92;75.10;94828.56;6196504;23;20026;-83
2022/04/20 07:08:01;;;;;;;38.55;21.98;;;;;;;3.72;74.90;94781.88;6199937;23;20073;-83
2022/04/20 07:10:27;;;;;;;35.53;21.73;;;;;;;3.79;75.43;94779.88;6201112;23;20012;-83
2022/04/20 07:12:53;;;;;;;38.13;22.08;;;;;;;4.11;75.42;94830.72;6226012;23;20035;-82
2022/04/20 07:15:19;;;;;;;29.98;19.05;;;;;;;4.00;74.50;94838.66;6197330;23;20055;-82
2022/04/20 07:17:45;;;;;;;28.67;17.98;;;;;;;4.47;74.31;94909.94;6197561;23;20107;-82
2022/04/20 07:20:17;;;;;;;29.00;17.85;;;;;;;3.20;74.30;94766.38;6200173;23;20090;-83
2022/04/20 07:22:44;;;;;;;34.30;20.42;;;;;;;4.62;74.91;94955.59;6201396;23;20007;-84
2022/04/20 07:25:09;;;;;;;31.45;20.25;;;;;;;4.70;75.52;94961.47;6224790;23;20123;-84
2022/04/20 07:27:35;;;;;;;32.03;19.10;;;;;;;3.94;75.62;94845.69;6228417;23;20398;-85
2022/04/20 07:30:01;;;;;;;31.00;19.65;;;;;;;3.96;75.50;94837.56;6197919;23;20027;-84
2022/04/20 07:32:26;;;;;;;32.65;19.05;;;;;;;4.45;75.96;94923.31;6225814;23;20165;-84
2022/04/20 07:34:52;;;;;;;30.75;20.10;;;;;;;1.77;75.47;94502.47;6226435;23;20011;-85
2022/04/20 07:37:17;;;;;;;33.78;20.27;;;;;;;4.43;77.66;94951.63;6245329;22;20087;-84
2022/04/20 07:39:43;;;;;;;34.50;21.92;;;;;;;3.90;77.20;94852.41;6244994;22;20266;-83
2022/04/20 07:42:09;;;;;;;34.35;22.83;;;;;;;4.31;76.97;94869.56;6253395;22;20013;-83
2022/04/20 07:44:34;;;;;;;35.92;21.88;;;;;;;3.60;76.49;94750.47;6252585;22;20010;-81
2022/04/20 07:46:59;;;;;;;34.65;22.05;;;;;;;4.82;76.42;94907.78;6250948;22;20012;-83
2022/04/20 07:52:09;;;;;;;38.60;21.65;;;;;;;3.39;76.51;94753.84;6254557;22;20050;-83
2022/04/20 07:54:36;;;;;;;38.58;23.38;;;;;;;4.90;77.00;94933.66;6250871;22;20075;-84
2022/04/20 07:57:01;;;;;;;44.45;25.45;;;;;;;4.48;76.97;94875.59;6246723;22;20011;-86
2022/04/20 07:59:27;;;;;;;41.53;26.88;;;;;;;4.17;76.69;94807.94;6256269;22;20605;-85
2022/04/20 08:01:52;;;;;;;43.95;27.42;;;;;;;2.17;76.41;94518.84;6260509;22;20167;-85
2022/04/20 08:04:18;;;;;;;59.58;33.90;;;;;;;4.90;77.01;94930.22;6253449;22;20321;-86
2022/04/20 08:06:44;;;;;;;79.03;40.15;;;;;;;2.67;76.24;94565.94;6257561;22;20016;-85
2022/04/20 08:09:09;;;;;;;77.15;47.78;;;;;;;2.33;77.31;94493.72;6259067;22;20083;-86
2022/04/20 08:11:37;;;;;;;87.70;51.85;;;;;;;3.13;77.97;94657.53;6259271;22;20188;-84
2022/04/20 08:14:11;;;;;;;74.65;46.92;;;;;;;4.63;77.83;94854.75;6264566;22;20022;-83
2022/04/20 08:16:37;;;;;;;59.63;36.97;;;;;;;2.30;77.49;94504.66;6252524;22;20007;-82
2022/04/20 08:19:09;;;;;;;47.97;29.77;;;;;;;2.57;77.21;94529.16;6254249;22;20015;-84
2022/04/20 08:21:34;;;;;;;;;;;;;;;5.10;77.33;94921.81;6257290;22;20473;-84
2022/04/20 08:24:00;;;;;;;51.15;29.35;;;;;;;-0.20;77.57;94090.75;6258010;22;19939;-83
2022/04/20 08:26:25;;;;;;;52.03;29.40;;;;;;;3.30;78.14;94611.09;6257273;22;20022;-83
2022/04/20 08:28:51;;;;;;;57.72;31.77;;;;;;;5.14;77.60;94879.00;6257344;22;20081;-84
2022/04/20 08:31:16;;;;;;;45.75;29.63;;;;;;;2.12;76.54;94436.88;6256505;22;20493;-83
2022/04/20 08:33:42;;;;;;;44.67;30.33;;;;;;;5.32;78.25;94898.91;6252896;22;20394;-85
2022/04/20 08:36:15;;;;;;;52.90;32.45;;;;;;;4.69;77.86;94799.66;6249828;22;20095;-85
2022/04/20 08:38:42;;;;;;;50.97;31.92;;;;;;;-0.96;77.32;93927.91;6204496;23;20316;-85
2022/04/20 08:41:11;;;;;;;40.42;26.40;;;;;;;2.46;77.53;94414.06;6232633;23;20065;-86
2022/04/20 08:43:43;;;;;;;42.53;26.90;;;;;;;1.98;77.66;94334.44;6208560;23;20553;-87
2022/04/20 08:46:12;;;;;;;44.50;27.67;;;;;;;2.93;78.29;94532.28;6200639;23;20381;-86
2022/04/20 08:48:38;;;;;;;37.78;24.17;;;;;;;3.82;77.79;94587.91;6201772;23;20011;-86
2022/04/20 08:51:07;;;;;;;38.42;22.80;;;;;;;3.75;77.09;94553.19;6226708;23;20023;-84
2022/04/20 08:53:33;;;;;;;28.33;20.08;;;;;;;3.39;75.75;94549.38;6199940;23;20042;-85
2022/04/20 08:58:48;;;;;;;38.33;24.48;;;;;;;2.30;77.57;94413.88;6178941;23;20007;-88
2022/04/20 09:01:34;;;;;;;31.73;22.65;;;;;;;5.78;78.12;94850.16;6231247;23;20014;-87
2022/04/20 09:04:04;;;;;;;37.75;22.30;;;;;;;2.62;77.43;94360.88;6228265;23;20439;-87
2022/04/20 09:06:31;;;;;;;35.80;21.77;;;;;;;-0.22;77.55;93954.69;6204196;23;20016;-88
2022/04/20 09:09:30;;;;;;;37.05;22.45;;;;;;;0.05;78.49;94055.75;6203049;23;20044;-89
2022/04/20 09:11:59;;;;;;;40.63;23.58;;;;;;;3.33;78.51;94582.59;6071761;23;20068;-86
2022/04/20 09:14:48;;;;;;;37.85;23.58;;;;;;;3.33;79.02;94479.59;6195900;23;20086;-86
2022/04/20 09:17:21;;;;;;;35.90;23.55;;;;;;;2.42;77.82;94395.47;6232261;23;20477;-86
2022/04/20 09:19:51;;;;;;;36.72;23.63;;;;;;;0.75;77.49;94098.59;6219425;22;20510;-86
2022/04/20 09:22:26;;;;;;;39.70;25.08;;;;;;;2.00;78.18;94242.66;6253949;22;20004;-85
2022/04/20 09:25:14;;;;;;;42.65;26.33;;;;;;;0.86;78.06;94062.19;6257597;22;20011;-84
2022/04/20 09:27:45;;;;;;;40.25;25.33;;;;;;;4.98;80.09;94665.16;6258522;22;20126;-84
2022/04/20 09:30:32;;;;;;;39.10;25.95;;;;;;;0.70;78.94;94054.13;6263981;22;20085;-84
2022/04/20 09:32:58;;;;;;;47.13;27.63;;;;;;;3.12;80.28;94407.03;6256416;22;20519;-85
2022/04/20 09:35:26;;;;;;;42.08;25.70;;;;;;;3.51;79.80;94412.94;6262399;22;20031;-85
2022/04/20 09:38:06;;;;;;;45.55;26.55;;;;;;;2.93;78.88;94312.28;6259500;22;20374;-85
2022/04/20 09:40:39;;;;;;;40.53;25.08;;;;;;;3.10;77.84;94384.50;6240109;22;20483;-85
2022/04/20 09:43:07;;;;;;;36.38;23.92;;;;;;;5.00;79.67;94643.91;6238243;22;20011;-85
2022/04/20 09:45:41;;;;;;;47.03;23.02;;;;;;;3.91;78.79;94442.16;6259912;22;20011;-85
2022/04/20 09:48:51;;;;;;;38.92;23.20;;;;;;;5.68;78.50;94689.56;6260534;22;20011;-85
2022/04/20 09:51:21;;;;;;;41.08;24.17;;;;;;;6.59;78.18;94863.88;6266100;22;20011;-85
2022/04/20 09:53:49;;;;;;;35.45;22.38;;;;;;;1.06;77.27;93981.53;6267320;22;20035;-85
2022/04/20 09:56:24;;;;;;;34.20;22.10;;;;;;;6.25;77.91;94741.50;6266588;22;20010;-85
2022/04/20 09:59:04;;;;;;;32.75;20.67;;;;;;;3.12;76.67;94302.25;6257559;22;20008;-85
2022/04/20 10:01:37;;;;;;;35.20;21.20;;;;;;;0.92;76.31;93954.19;6264534;22;20120;-86
2022/04/20 10:04:11;;;;;;;32.80;20.80;;;;;;;3.28;77.11;94351.16;6268223;22;20012;-85
2022/04/20 10:06:41;;;;;;;34.67;19.42;;;;;;;2.33;77.11;94193.59;6266514;22;20023;-87
2022/04/20 10:09:09;;;;;;;34.97;21.05;;;;;;;5.90;78.71;94750.78;6266668;22;20197;-86
2022/04/20 10:11:36;;;;;;;32.25;20.27;;;;;;;3.76;78.84;94405.28;6277675;22;20007;-86
2022/04/20 10:16:54;;;;;;;23.15;16.70;;;;;;;5.39;79.27;94616.31;6267240;22;20080;-86
2022/04/20 10:19:27;;;;;;;21.10;13.60;;;;;;;5.62;79.27;94657.19;6269287;22;20012;-85
2022/04/20 10:21:57;;;;;;;16.83;12.30;;;;;;;6.42;78.58;94798.19;6261583;22;20063;-86
2022/04/20 10:24:30;;;;;;;17.23;11.88;;;;;;;6.55;78.36;94792.47;6267468;22;20443;-86
2022/04/20 10:27:04;;;;;;;19.00;12.38;;;;;;;6.24;78.91;94738.09;6260661;22;20019;-85
2022/04/20 10:30:07;;;;;;;20.70;13.43;;;;;;;5.18;79.12;94596.19;6264374;22;20015;-85
2022/04/20 10:32:49;;;;;;;16.38;12.35;;;;;;;5.20;77.91;94582.78;6249526;22;20039;-86
2022/04/20 10:35:16;;;;;;;15.27;11.57;;;;;;;2.91;79.53;94214.81;6257344;22;20015;-86
2022/04/20 10:38:02;;;;;;;18.55;12.85;;;;;;;6.08;80.74;94754.84;6257139;22;20561;-84
2022/04/20 10:41:13;;;;;;;21.40;12.48;;;;;;;3.13;80.00;94252.19;6252152;22;20031;-88
2022/04/20 10:43:53;;;;;;;18.10;12.95;;;;;;;0.08;79.77;93805.03;6257497;22;20011;-85
2022/04/20 10:46:22;;;;;;;21.58;12.98;;;;;;;6.16;80.27;94680.66;6252651;22;20114;-84
2022/04/20 10:49:00;;;;;;;12.57;9.60;;;;;;;5.92;79.45;94671.59;6252990;22;20630;-84
2022/04/20 10:51:29;;;;;;;12.60;10.93;;;;;;;6.54;78.84;94745.31;6252029;22;20322;-84
2022/04/20 10:54:18;;;;;;;15.98;11.05;;;;;;;6.33;78.91;94678.56;6256756;22;20568;-85
2022/04/20 10:56:59;;;;;;;15.82;10.43;;;;;;;4.27;78.20;94375.75;6254154;22;20238;-84
2022/04/20 10:59:25;;;;;;;;;;;;;;;6.58;78.68;94735.81;6256687;22;20076;-85
2022/04/20 11:02:02;;;;;;;16.25;10.85;;;;;;;6.49;79.13;94732.91;6261226;22;20286;-86
2022/04/20 11:04:54;;;;;;;19.75;13.10;;;;;;;6.45;78.94;94738.94;6259167;22;20053;-86
2022/04/20 11:07:24;;;;;;;16.65;11.15;;;;;;;3.29;79.43;94267.00;6256360;22;20015;-86
2022/04/20 11:09:57;;;;;;;17.92;10.55;;;;;;;3.15;79.72;94275.53;6262250;22;20416;-85
2022/04/20 11:18:39;;;;;;;18.17;11.57;;;;;;;6.05;78.27;94642.94;6263306;22;20103;-85
2022/04/20 11:21:06;;;;;;;17.63;12.05;;;;;;;6.65;78.41;94740.84;6250439;22;20374;-86
2022/04/20 11:23:51;;;;;;;18.83;12.60;;;;;;;6.65;78.03;94746.13;6256789;22;20011;-86
2022/04/20 11:26:26;;;;;;;24.15;13.80;;;;;;;6.10;77.45;94685.06;6260014;22;20538;-86
2022/04/20 11:29:03;;;;;;;19.92;12.65;;;;;;;4.07;77.06;94354.66;6261377;22;20015;-85
2022/04/20 11:32:08;;;;;;;18.85;12.82;;;;;;;2.18;78.06;94132.50;6245329;22;20449;-86
2022/04/20 11:34:41;;;;;;;25.75;16.35;;;;;;;2.39;77.69;94170.09;6259990;22;20011;-85
2022/04/20 11:37:07;;;;;;;28.40;17.98;;;;;;;5.79;78.20;94664.94;6259054;22;20030;-85
2022/04/20 11:39:33;;;;;;;27.20;17.83;;;;;;;5.43;78.94;94619.19;6258045;22;20023;-88
2022/04/20 11:42:00;;;;;;;25.42;17.58;;;;;;;5.39;78.81;94610.25;6260422;22;20106;-86
2022/04/20 11:44:52;;;;;;;26.80;17.77;;;;;;;6.44;78.77;94745.25;6263077;22;20452;-86
2022/04/20 11:47:24;;;;;;;29.33;18.58;;;;;;;4.11;79.29;94444.16;6255414;22;20027;-88
2022/04/20 11:49:49;;;;;;;;;;;;;;;6.51;78.95;94748.44;6258810;22;20286;-84
2022/04/20 11:52:29;;;;;;;27.90;18.60;;;;;;;6.47;79.61;94769.25;6258888;22;20301;-85
2022/04/20 11:55:05;;;;;;;30.98;19.02;;;;;;;4.28;79.70;94476.28;6258464;22;20017;-86
2022/04/20 11:57:31;;;;;;;27.98;17.85;;;;;;;4.36;79.48;94473.19;6262701;22;20077;-85
2022/04/20 11:59:59;;;;;;;26.25;16.55;;;;;;;4.29;79.70;94422.75;6260070;22;20020;-86
2022/04/20 12:02:25;;;;;;;27.38;15.93;;;;;;;2.20;79.77;94130.44;6262237;22;20007;-86
2022/04/20 12:05:04;;;;;;;18.80;13.65;;;;;;;4.23;78.25;94450.81;6261725;22;20568;-87
2022/04/20 12:07:32;;;;;;;19.48;12.38;;;;;;;5.99;78.40;94714.25;6261136;22;20019;-86
2022/04/20 12:09:58;;;;;;;19.02;12.93;;;;;;;4.00;79.17;94413.63;6263382;22;20012;-83
2022/04/20 12:12:24;;;;;;;19.50;12.10;;;;;;;4.44;78.45;94474.56;6263790;22;20019;-84